sensor_id;sensor_type;location;lat;lon;timestamp;P1;P2;P0
72509;PMS5003;60532;56.114;40.350;2022-08-11T00:02:01;5.60;4.20;3.00
72509;PMS5003;60532;56.114;40.350;2022-08-11T00:07:03;6.60;5.60;3.20
72509;PMS5003;60532;56.114;40.350;2022-08-11T00:12:04;7.00;5.40;3.00
72509;PMS5003;60532;56.114;40.350;2022-08-11T00:17:12;7.00;5.00;4.00
72509;PMS5003;60532;56.114;40.350;2022-08-11T00:22:19;6.40;6.00;4.00
72509;PMS5003;60532;56.114;40.350;2022-08-11T00:27:30;5.00;5.00;3.00
72509;PMS5003;60532;56.114;40.350;2022-08-11T00:32:30;5.00;5.00;3.80
72509;PMS5003;60532;56.114;40.350;2022-08-11T00:37:32;4.40;4.40;3.00
72509;PMS5003;60532;56.114;40.350;2022-08-11T00:42:54;5.00;5.00;4.00
72509;PMS5003;60532;56.114;40.350;2022-08-11T00:53:39;5.00;5.00;3.80
72509;PMS5003;60532;56.114;40.350;2022-08-11T01:55:41;6.40;6.40;4.00
72509;PMS5003;60532;56.114;40.350;2022-08-11T02:11:30;4.60;4.00;3.00
72509;PMS5003;60532;56.114;40.350;2022-08-11T02:21:44;6.20;6.20;3.40
72509;PMS5003;60532;56.114;40.350;2022-08-11T02:27:06;6.20;5.00;3.00
72509;PMS5003;60532;56.114;40.350;2022-08-11T02:32:26;3.60;3.00;3.00
72509;PMS5003;60532;56.114;40.350;2022-08-11T02:37:49;5.60;5.60;4.00
72509;PMS5003;60532;56.114;40.350;2022-08-11T02:43:00;8.60;7.00;4.80
72509;PMS5003;60532;56.114;40.350;2022-08-11T02:48:14;5.40;5.40;4.40
72509;PMS5003;60532;56.114;40.350;2022-08-11T02:53:46;7.00;7.00;5.00
72509;PMS5003;60532;56.114;40.350;2022-08-11T03:04:13;6.80;6.20;3.20
72509;PMS5003;60532;56.114;40.350;2022-08-11T03:09:29;9.00;8.00;4.40
72509;PMS5003;60532;56.114;40.350;2022-08-11T03:30:51;8.25;8.25;5.25
72509;PMS5003;60532;56.114;40.350;2022-08-11T03:36:04;6.00;6.00;4.75
72509;PMS5003;60532;56.114;40.350;2022-08-11T03:41:13;5.50;;2.50
72509;PMS5003;60532;56.114;40.350;2022-08-11T03:51:54;9.00;8.00;5.00
72509;PMS5003;60532;56.114;40.350;2022-08-11T04:07:40;7.25;6.75;5.25
72509;PMS5003;60532;56.114;40.350;2022-08-11T04:18:05;7.00;7.00;4.50
72509;PMS5003;60532;56.114;40.350;2022-08-11T04:28:25;6.67;6.67;3.00
72509;PMS5003;60532;56.114;40.350;2022-08-11T04:54:04;8.00;6.50;4.75
72509;PMS5003;60532;56.114;40.350;2022-08-11T05:15:42;12.00;9.25;6.00
72509;PMS5003;60532;56.114;40.350;2022-08-11T05:21:06;10.50;10.50;6.00
72509;PMS5003;60532;56.114;40.350;2022-08-11T05:26:26;8.75;8.75;6.00
72509;PMS5003;60532;56.114;40.350;2022-08-11T05:31:50;9.00;9.00;5.00
72509;PMS5003;60532;56.114;40.350;2022-08-11T05:37:14;8.50;8.50;6.00
72509;PMS5003;60532;56.114;40.350;2022-08-11T05:42:20;8.25;8.25;5.25
72509;PMS5003;60532;56.114;40.350;2022-08-11T05:47:41;8.00;7.20;6.00
72509;PMS5003;60532;56.114;40.350;2022-08-11T05:53:00;10.60;9.20;5.00
72509;PMS5003;60532;56.114;40.350;2022-08-11T05:58:20;9.40;9.40;5.20
72509;PMS5003;60532;56.114;40.350;2022-08-11T06:03:25;11.50;9.50;6.00
72509;PMS5003;60532;56.114;40.350;2022-08-11T06:08:31;8.00;6.00;4.00
72509;PMS5003;60532;56.114;40.350;2022-08-11T06:13:32;8.75;8.75;4.50
72509;PMS5003;60532;56.114;40.350;2022-08-11T06:18:34;9.50;8.00;4.00
72509;PMS5003;60532;56.114;40.350;2022-08-11T06:23:36;9.50;8.75;5.50
72509;PMS5003;60532;56.114;40.350;2022-08-11T06:28:37;8.25;7.00;4.25
72509;PMS5003;60532;56.114;40.350;2022-08-11T06:33:53;7.25;7.25;4.00
72509;PMS5003;60532;56.114;40.350;2022-08-11T06:39:08;7.50;6.75;4.00
72509;PMS5003;60532;56.114;40.350;2022-08-11T06:44:14;6.50;6.50;3.50
72509;PMS5003;60532;56.114;40.350;2022-08-11T06:49:17;5.75;5.75;4.25
72509;PMS5003;60532;56.114;40.350;2022-08-11T06:54:38;3.75;3.75;2.25
72509;PMS5003;60532;56.114;40.350;2022-08-11T06:59:40;5.00;5.00;3.00
72509;PMS5003;60532;56.114;40.350;2022-08-11T07:10:16;7.25;5.75;3.25
72509;PMS5003;60532;56.114;40.350;2022-08-11T07:15:38;5.00;5.00;4.00
72509;PMS5003;60532;56.114;40.350;2022-08-11T07:20:42;4.75;4.75;3.00
72509;PMS5003;60532;56.114;40.350;2022-08-11T07:26:02;7.00;6.50;3.50
72509;PMS5003;60532;56.114;40.350;2022-08-11T07:31:31;6.00;5.25;3.25
72509;PMS5003;60532;56.114;40.350;2022-08-11T07:36:36;5.25;5.00;3.50
72509;PMS5003;60532;56.114;40.350;2022-08-11T07:41:38;5.50;5.50;3.50
72509;PMS5003;60532;56.114;40.350;2022-08-11T07:46:43;7.67;6.00;3.67
72509;PMS5003;60532;56.114;40.350;2022-08-11T07:52:03;5.50;5.50;4.00
72509;PMS5003;60532;56.114;40.350;2022-08-11T07:57:23;4.50;4.00;3.00
72509;PMS5003;60532;56.114;40.350;2022-08-11T08:02:42;5.25;5.25;4.00
72509;PMS5003;60532;56.114;40.350;2022-08-11T08:08:02;6.00;6.00;4.00
72509;PMS5003;60532;56.114;40.350;2022-08-11T08:13:21;5.75;5.75;3.75
72509;PMS5003;60532;56.114;40.350;2022-08-11T08:18:41;8.25;7.25;5.00
72509;PMS5003;60532;56.114;40.350;2022-08-11T08:23:45;5.33;5.33;2.67
72509;PMS5003;60532;56.114;40.350;2022-08-11T08:28:46;5.50;5.00;3.00
72509;PMS5003;60532;56.114;40.350;2022-08-11T08:33:46;3.33;3.33;2.33
72509;PMS5003;60532;56.114;40.350;2022-08-11T08:38:48;5.00;5.00;3.00
72509;PMS5003;60532;56.114;40.350;2022-08-11T08:43:50;4.75;4.75;2.75
72509;PMS5003;60532;56.114;40.350;2022-08-11T08:48:52;4.50;4.50;3.00
72509;PMS5003;60532;56.114;40.350;2022-08-11T08:53:53;4.75;4.00;2.75
72509;PMS5003;60532;56.114;40.350;2022-08-11T08:58:55;3.33;3.00;2.00
72509;PMS5003;60532;56.114;40.350;2022-08-11T09:03:57;5.00;5.00;3.00
72509;PMS5003;60532;56.114;40.350;2022-08-11T09:08:59;4.00;4.00;3.00
72509;PMS5003;60532;56.114;40.350;2022-08-11T09:14:00;3.00;3.00;2.00
72509;PMS5003;60532;56.114;40.350;2022-08-11T09:19:02;4.00;4.00;2.50
72509;PMS5003;60532;56.114;40.350;2022-08-11T09:24:03;3.00;3.00;1.67
72509;PMS5003;60532;56.114;40.350;2022-08-11T09:29:23;4.75;4.75;2.75
72509;PMS5003;60532;56.114;40.350;2022-08-11T09:34:24;4.00;4.00;3.00
72509;PMS5003;60532;56.114;40.350;2022-08-11T09:39:26;6.00;6.00;3.50
72509;PMS5003;60532;56.114;40.350;2022-08-11T09:44:47;5.33;5.00;2.33
72509;PMS5003;60532;56.114;40.350;2022-08-11T09:49:48;6.00;4.00;3.00
72509;PMS5003;60532;56.114;40.350;2022-08-11T09:54:51;4.00;4.00;2.00
72509;PMS5003;60532;56.114;40.350;2022-08-11T09:59:52;6.00;6.00;3.75
72509;PMS5003;60532;56.114;40.350;2022-08-11T10:04:56;1.33;1.33;0.00
72509;PMS5003;60532;56.114;40.350;2022-08-11T10:10:16;4.25;4.00;2.75
72509;PMS5003;60532;56.114;40.350;2022-08-11T10:15:21;7.00;4.00;2.75
72509;PMS5003;60532;56.114;40.350;2022-08-11T10:20:37;4.75;4.25;3.00
72509;PMS5003;60532;56.114;40.350;2022-08-11T10:25:39;4.75;4.50;2.50
72509;PMS5003;60532;56.114;40.350;2022-08-11T10:30:59;5.75;4.25;1.50
72509;PMS5003;60532;56.114;40.350;2022-08-11T10:36:19;4.25;4.25;2.75
72509;PMS5003;60532;56.114;40.350;2022-08-11T10:41:19;7.00;6.00;4.00
72509;PMS5003;60532;56.114;40.350;2022-08-11T10:46:38;6.75;6.00;3.50
72509;PMS5003;60532;56.114;40.350;2022-08-11T10:52:17;4.50;4.50;3.00
72509;PMS5003;60532;56.114;40.350;2022-08-11T10:57:37;4.75;3.75;2.00
72509;PMS5003;60532;56.114;40.350;2022-08-11T11:02:56;4.00;4.00;3.00
72509;PMS5003;60532;56.114;40.350;2022-08-11T11:08:10;6.00;5.00;4.00
72509;PMS5003;60532;56.114;40.350;2022-08-11T11:13:32;6.50;5.50;3.00
72509;PMS5003;60532;56.114;40.350;2022-08-11T11:18:52;4.50;4.00;2.00
72509;PMS5003;60532;56.114;40.350;2022-08-11T11:39:27;4.75;3.75;2.75
72509;PMS5003;60532;56.114;40.350;2022-08-11T11:44:30;5.50;5.50;3.50
72509;PMS5003;60532;56.114;40.350;2022-08-11T11:49:31;1.50;1.50;0.00
72509;PMS5003;60532;56.114;40.350;2022-08-11T11:54:32;4.25;4.25;3.75
72509;PMS5003;60532;56.114;40.350;2022-08-11T11:59:33;5.75;5.00;3.00
72509;PMS5003;60532;56.114;40.350;2022-08-11T12:04:52;4.00;3.75;2.75
72509;PMS5003;60532;56.114;40.350;2022-08-11T12:09:53;4.67;4.67;3.00
72509;PMS5003;60532;56.114;40.350;2022-08-11T12:14:54;4.00;4.00;2.75
72509;PMS5003;60532;56.114;40.350;2022-08-11T12:19:55;3.00;3.00;2.00
72509;PMS5003;60532;56.114;40.350;2022-08-11T12:24:56;5.75;4.25;3.00
72509;PMS5003;60532;56.114;40.350;2022-08-11T12:30:15;3.75;3.75;2.75
72509;PMS5003;60532;56.114;40.350;2022-08-11T12:35:18;3.50;3.50;2.25
72509;PMS5003;60532;56.114;40.350;2022-08-11T12:40:21;4.67;4.67;3.00
72509;PMS5003;60532;56.114;40.350;2022-08-11T12:45:41;4.25;3.25;1.75
72509;PMS5003;60532;56.114;40.350;2022-08-11T12:50:42;4.00;4.00;2.00
72509;PMS5003;60532;56.114;40.350;2022-08-11T12:56:04;3.00;3.00;1.50
72509;PMS5003;60532;56.114;40.350;2022-08-11T13:01:24;2.50;2.50;1.50
72509;PMS5003;60532;56.114;40.350;2022-08-11T13:06:43;3.75;3.75;2.00
72509;PMS5003;60532;56.114;40.350;2022-08-11T13:11:44;3.00;3.00;1.00
72509;PMS5003;60532;56.114;40.350;2022-08-11T13:17:03;2.25;2.25;1.00
72509;PMS5003;60532;56.114;40.350;2022-08-11T13:22:23;5.50;3.50;1.75
72509;PMS5003;60532;56.114;40.350;2022-08-11T13:27:25;3.00;3.00;2.00
72509;PMS5003;60532;56.114;40.350;2022-08-11T13:32:26;3.67;3.67;2.33
72509;PMS5003;60532;56.114;40.350;2022-08-11T13:37:28;2.50;2.50;2.00
72509;PMS5003;60532;56.114;40.350;2022-08-11T13:42:29;3.75;2.50;1.75
72509;PMS5003;60532;56.114;40.350;2022-08-11T13:47:30;3.00;3.00;2.00
72509;PMS5003;60532;56.114;40.350;2022-08-11T13:52:33;2.50;2.50;1.00
72509;PMS5003;60532;56.114;40.350;2022-08-11T13:57:35;3.50;1.50;0.50
72509;PMS5003;60532;56.114;40.350;2022-08-11T14:02:41;5.00;4.25;2.00
72509;PMS5003;60532;56.114;40.350;2022-08-11T14:07:54;3.00;3.00;2.00
72509;PMS5003;60532;56.114;40.350;2022-08-11T14:13:00;4.00;3.00;1.75
72509;PMS5003;60532;56.114;40.350;2022-08-11T14:18:27;4.50;3.75;2.00
72509;PMS5003;60532;56.114;40.350;2022-08-11T14:23:34;2.75;2.75;1.75
72509;PMS5003;60532;56.114;40.350;2022-08-11T14:28:36;4.00;3.00;1.00
72509;PMS5003;60532;56.114;40.350;2022-08-11T14:33:38;2.75;2.75;1.25
72509;PMS5003;60532;56.114;40.350;2022-08-11T14:38:40;2.50;2.50;2.00
72509;PMS5003;60532;56.114;40.350;2022-08-11T14:43:41;1.75;1.75;1.00
72509;PMS5003;60532;56.114;40.350;2022-08-11T14:49:00;2.00;2.00;1.00
72509;PMS5003;60532;56.114;40.350;2022-08-11T14:54:01;4.67;4.00;2.67
72509;PMS5003;60532;56.114;40.350;2022-08-11T14:59:38;4.00;4.00;3.00
72509;PMS5003;60532;56.114;40.350;2022-08-11T15:04:39;4.00;4.00;2.00
72509;PMS5003;60532;56.114;40.350;2022-08-11T15:09:40;4.00;4.00;2.00
72509;PMS5003;60532;56.114;40.350;2022-08-11T15:14:43;4.25;4.00;2.75
72509;PMS5003;60532;56.114;40.350;2022-08-11T15:20:07;3.00;3.00;1.50
72509;PMS5003;60532;56.114;40.350;2022-08-11T15:25:27;3.00;3.00;1.50
72509;PMS5003;60532;56.114;40.350;2022-08-11T15:30:28;4.75;3.50;2.75
72509;PMS5003;60532;56.114;40.350;2022-08-11T15:35:47;6.25;4.50;3.00
72509;PMS5003;60532;56.114;40.350;2022-08-11T15:41:07;3.75;3.75;1.75
72509;PMS5003;60532;56.114;40.350;2022-08-11T15:51:40;6.25;4.00;2.50
72509;PMS5003;60532;56.114;40.350;2022-08-11T15:56:47;5.75;4.25;2.00
72509;PMS5003;60532;56.114;40.350;2022-08-11T16:01:48;5.75;5.00;3.00
72509;PMS5003;60532;56.114;40.350;2022-08-11T16:07:10;4.25;4.25;3.00
72509;PMS5003;60532;56.114;40.350;2022-08-11T16:12:12;5.00;5.00;3.00
72509;PMS5003;60532;56.114;40.350;2022-08-11T16:17:13;4.75;4.75;3.00
72509;PMS5003;60532;56.114;40.350;2022-08-11T16:22:19;6.25;5.75;3.75
72509;PMS5003;60532;56.114;40.350;2022-08-11T16:27:21;4.50;4.00;3.00
72509;PMS5003;60532;56.114;40.350;2022-08-11T16:32:22;5.75;5.00;3.00
72509;PMS5003;60532;56.114;40.350;2022-08-11T16:37:23;6.75;6.75;3.00
72509;PMS5003;60532;56.114;40.350;2022-08-11T16:42:43;6.75;5.50;3.50
72509;PMS5003;60532;56.114;40.350;2022-08-11T16:48:05;7.25;7.25;4.00
72509;PMS5003;60532;56.114;40.350;2022-08-11T16:53:05;8.00;7.25;4.00
72509;PMS5003;60532;56.114;40.350;2022-08-11T16:58:06;6.67;6.33;4.00
72509;PMS5003;60532;56.114;40.350;2022-08-11T17:03:25;4.50;4.00;2.00
72509;PMS5003;60532;56.114;40.350;2022-08-11T17:08:46;8.50;8.00;6.00
72509;PMS5003;60532;56.114;40.350;2022-08-11T17:14:09;7.25;7.25;5.75
72509;PMS5003;60532;56.114;40.350;2022-08-11T17:19:12;13.75;11.50;6.00
72509;PMS5003;60532;56.114;40.350;2022-08-11T17:24:16;13.00;9.50;5.00
72509;PMS5003;60532;56.114;40.350;2022-08-11T17:29:40;11.60;11.00;5.40
72509;PMS5003;60532;56.114;40.350;2022-08-11T17:34:39;9.40;9.40;6.00
72509;PMS5003;60532;56.114;40.350;2022-08-11T17:40:00;16.80;15.20;7.60
72509;PMS5003;60532;56.114;40.350;2022-08-11T17:45:02;19.00;15.00;7.40
72509;PMS5003;60532;56.114;40.350;2022-08-11T17:50:22;12.00;11.40;7.00
72509;PMS5003;60532;56.114;40.350;2022-08-11T17:55:22;13.25;12.50;8.00
72509;PMS5003;60532;56.114;40.350;2022-08-11T18:00:42;11.60;10.20;6.00
72509;PMS5003;60532;56.114;40.350;2022-08-11T18:05:43;9.75;9.75;6.00
72509;PMS5003;60532;56.114;40.350;2022-08-11T18:10:45;8.00;7.00;5.00
72509;PMS5003;60532;56.114;40.350;2022-08-11T18:16:05;6.40;6.40;5.40
72509;PMS5003;60532;56.114;40.350;2022-08-11T18:21:25;10.60;10.60;6.00
72509;PMS5003;60532;56.114;40.350;2022-08-11T18:26:46;9.00;9.00;6.20
72509;PMS5003;60532;56.114;40.350;2022-08-11T18:32:05;14.00;11.80;6.40
72509;PMS5003;60532;56.114;40.350;2022-08-11T18:37:26;13.40;11.00;7.40
72509;PMS5003;60532;56.114;40.350;2022-08-11T18:42:48;14.00;11.80;7.20
72509;PMS5003;60532;56.114;40.350;2022-08-11T18:48:11;10.00;10.00;5.60
72509;PMS5003;60532;56.114;40.350;2022-08-11T18:53:30;8.60;8.40;5.60
72509;PMS5003;60532;56.114;40.350;2022-08-11T18:58:52;8.80;8.60;5.20
72509;PMS5003;60532;56.114;40.350;2022-08-11T19:04:11;10.40;9.80;5.80
72509;PMS5003;60532;56.114;40.350;2022-08-11T19:09:31;17.80;15.00;8.60
72509;PMS5003;60532;56.114;40.350;2022-08-11T19:14:53;15.20;14.20;8.20
72509;PMS5003;60532;56.114;40.350;2022-08-11T19:20:19;14.40;14.40;9.40
72509;PMS5003;60532;56.114;40.350;2022-08-11T19:25:38;20.20;18.80;12.20
72509;PMS5003;60532;56.114;40.350;2022-08-11T19:30:59;23.40;21.40;12.40
72509;PMS5003;60532;56.114;40.350;2022-08-11T19:36:18;23.80;21.40;13.40
72509;PMS5003;60532;56.114;40.350;2022-08-11T19:41:39;25.40;23.20;14.40
72509;PMS5003;60532;56.114;40.350;2022-08-11T19:46:59;20.00;20.00;11.80
72509;PMS5003;60532;56.114;40.350;2022-08-11T19:52:23;25.40;20.40;14.00
72509;PMS5003;60532;56.114;40.350;2022-08-11T19:57:43;21.00;20.00;10.40
72509;PMS5003;60532;56.114;40.350;2022-08-11T20:03:04;19.40;14.80;8.00
72509;PMS5003;60532;56.114;40.350;2022-08-11T20:08:24;22.60;15.60;9.00
72509;PMS5003;60532;56.114;40.350;2022-08-11T20:13:43;12.00;11.20;7.20
72509;PMS5003;60532;56.114;40.350;2022-08-11T20:19:04;17.80;15.00;8.80
72509;PMS5003;60532;56.114;40.350;2022-08-11T20:24:25;12.00;12.00;7.00
72509;PMS5003;60532;56.114;40.350;2022-08-11T20:29:44;9.20;9.20;6.60
72509;PMS5003;60532;56.114;40.350;2022-08-11T20:35:06;16.80;12.60;7.80
72509;PMS5003;60532;56.114;40.350;2022-08-11T20:40:26;12.20;11.00;6.80
72509;PMS5003;60532;56.114;40.350;2022-08-11T20:45:46;15.60;15.60;9.20
72509;PMS5003;60532;56.114;40.350;2022-08-11T20:51:06;15.20;13.20;8.80
72509;PMS5003;60532;56.114;40.350;2022-08-11T20:56:27;16.40;15.80;10.00
72509;PMS5003;60532;56.114;40.350;2022-08-11T21:01:46;15.40;15.40;8.60
72509;PMS5003;60532;56.114;40.350;2022-08-11T21:07:06;29.80;27.00;14.60
72509;PMS5003;60532;56.114;40.350;2022-08-11T21:12:26;22.80;22.00;13.80
72509;PMS5003;60532;56.114;40.350;2022-08-11T21:17:46;20.00;18.00;11.20
72509;PMS5003;60532;56.114;40.350;2022-08-11T21:23:08;21.80;14.00;8.80
72509;PMS5003;60532;56.114;40.350;2022-08-11T21:28:28;16.60;15.00;9.00
72509;PMS5003;60532;56.114;40.350;2022-08-11T21:33:48;12.00;12.00;7.80
72509;PMS5003;60532;56.114;40.350;2022-08-11T21:39:09;13.60;13.20;8.20
72509;PMS5003;60532;56.114;40.350;2022-08-11T21:44:28;14.20;13.20;7.20
72509;PMS5003;60532;56.114;40.350;2022-08-11T21:49:47;13.40;11.00;7.00
72509;PMS5003;60532;56.114;40.350;2022-08-11T21:55:07;16.00;14.00;9.00
72509;PMS5003;60532;56.114;40.350;2022-08-11T22:00:26;15.20;13.60;8.00
72509;PMS5003;60532;56.114;40.350;2022-08-11T22:05:46;14.80;12.60;7.00
72509;PMS5003;60532;56.114;40.350;2022-08-11T22:11:05;11.20;11.20;6.60
72509;PMS5003;60532;56.114;40.350;2022-08-11T22:16:24;20.60;18.60;10.60
72509;PMS5003;60532;56.114;40.350;2022-08-11T22:21:43;13.00;10.40;6.60
72509;PMS5003;60532;56.114;40.350;2022-08-11T22:27:03;10.80;9.40;5.60
72509;PMS5003;60532;56.114;40.350;2022-08-11T22:32:22;6.40;6.20;4.60
72509;PMS5003;60532;56.114;40.350;2022-08-11T22:37:42;8.40;8.40;5.20
72509;PMS5003;60532;56.114;40.350;2022-08-11T22:43:03;11.20;9.60;6.00
72509;PMS5003;60532;56.114;40.350;2022-08-11T22:48:22;8.80;8.80;5.00
72509;PMS5003;60532;56.114;40.350;2022-08-11T22:53:43;10.40;10.40;6.00
72509;PMS5003;60532;56.114;40.350;2022-08-11T22:59:03;9.40;9.40;5.60
72509;PMS5003;60532;56.114;40.350;2022-08-11T23:04:23;11.60;11.60;6.60
72509;PMS5003;60532;56.114;40.350;2022-08-11T23:09:42;10.40;9.00;5.60
72509;PMS5003;60532;56.114;40.350;2022-08-11T23:15:02;10.00;10.00;6.00
72509;PMS5003;60532;56.114;40.350;2022-08-11T23:20:21;8.80;8.80;6.00
72509;PMS5003;60532;56.114;40.350;2022-08-11T23:25:40;10.80;10.80;6.80
72509;PMS5003;60532;56.114;40.350;2022-08-11T23:31:01;9.60;9.00;5.00
72509;PMS5003;60532;56.114;40.350;2022-08-11T23:36:21;11.40;8.00;5.60
72509;PMS5003;60532;56.114;40.350;2022-08-11T23:41:41;12.20;12.20;6.60
72509;PMS5003;60532;56.114;40.350;2022-08-11T23:47:01;11.00;8.00;6.00
72509;PMS5003;60532;56.114;40.350;2022-08-11T23:52:22;9.60;9.20;6.00
72509;PMS5003;60532;56.114;40.350;2022-08-11T23:57:41;11.80;9.20;6.00
